Concepcion, Bolivia
Current Conditions -  °F | °C
As of 5:00 PM on Saturday 20 Dec 2014 (Local Time) from SLVR Reporting Station
Broken Clouds Broken Clouds  
Wind Chill: 77°   Ceiling: 700
Heat Index: 78°   Visibility: 6mi
Dew Point: 75°   Wind: 24mph
Humidity: 94%   Direction: 350°N
Pressure: 29.53"   Gusts: 40mph
Location:  16.25°S, 62.1°W
Report Text: SLVR 202100Z 35021G35KT 9999 BKN007 BKN017 25/24 Q1000
Loading
Personal Weather Stations






























Interactive Weather Map New forecast layout! Learn more

10-Day Weather Forecast

Advertisements
Track Severe Weather on mobile